sensor_id;sensor_type;location;lat;lon;timestamp;pressure;altitude;pressure_sealevel;temperature;humidity
49979;BME280;35869;50.990;6.962;2023-04-01T00:04:42;99175.53;;;10.42;94.20
49979;BME280;35869;50.990;6.962;2023-04-01T00:09:43;99161.31;;;10.35;94.12
49979;BME280;35869;50.990;6.962;2023-04-01T00:14:43;99166.22;;;10.27;95.40
49979;BME280;35869;50.990;6.962;2023-04-01T00:19:43;99166.72;;;10.32;94.93
49979;BME280;35869;50.990;6.962;2023-04-01T00:24:43;99166.09;;;10.41;95.51
49979;BME280;35869;50.990;6.962;2023-04-01T00:29:46;99165.38;;;10.39;94.88
49979;BME280;35869;50.990;6.962;2023-04-01T00:34:50;99162.31;;;10.20;95.33
49979;BME280;35869;50.990;6.962;2023-04-01T00:39:50;99163.72;;;10.38;95.38
49979;BME280;35869;50.990;6.962;2023-04-01T00:44:53;99157.78;;;10.36;93.52
49979;BME280;35869;50.990;6.962;2023-04-01T00:49:54;99154.47;;;10.34;94.67
49979;BME280;35869;50.990;6.962;2023-04-01T00:54:55;99148.63;;;10.43;93.76
49979;BME280;35869;50.990;6.962;2023-04-01T00:59:57;99152.06;;;10.44;92.92
49979;BME280;35869;50.990;6.962;2023-04-01T01:04:57;99143.13;;;10.35;94.89
49979;BME280;35869;50.990;6.962;2023-04-01T01:10:15;99147.78;;;10.43;93.12
49979;BME280;35869;50.990;6.962;2023-04-01T01:37:06;99145.22;;;10.30;96.77
49979;BME280;35869;50.990;6.962;2023-04-01T01:42:11;99136.47;;;10.31;96.14
49979;BME280;35869;50.990;6.962;2023-04-01T01:47:14;99144.91;;;10.34;96.25
49979;BME280;35869;50.990;6.962;2023-04-01T01:52:16;99147.59;;;10.33;96.51
49979;BME280;35869;50.990;6.962;2023-04-01T01:57:21;99134.41;;;10.23;98.01
49979;BME280;35869;50.990;6.962;2023-04-01T02:02:23;99135.75;;;10.16;98.79
49979;BME280;35869;50.990;6.962;2023-04-01T02:07:28;99141.13;;;10.13;99.60
49979;BME280;35869;50.990;6.962;2023-04-01T02:12:32;99139.47;;;10.12;100.00
49979;BME280;35869;50.990;6.962;2023-04-01T02:17:35;99142.59;;;10.17;99.39
49979;BME280;35869;50.990;6.962;2023-04-01T02:22:41;99139.47;;;10.12;99.04
49979;BME280;35869;50.990;6.962;2023-04-01T02:27:44;99143.84;;;10.11;99.62
49979;BME280;35869;50.990;6.962;2023-04-01T02:32:46;99140.53;;;9.97;100.00
49979;BME280;35869;50.990;6.962;2023-04-01T02:37:48;99145.59;;;9.85;100.00
49979;BME280;35869;50.990;6.962;2023-04-01T02:42:49;99142.25;;;9.96;100.00
49979;BME280;35869;50.990;6.962;2023-04-01T02:47:49;99139.88;;;9.93;100.00
49979;BME280;35869;50.990;6.962;2023-04-01T02:52:50;99133.13;;;9.91;100.00
49979;BME280;35869;50.990;6.962;2023-04-01T02:57:50;99127.91;;;9.91;100.00
49979;BME280;35869;50.990;6.962;2023-04-01T03:02:50;99139.63;;;9.71;100.00
49979;BME280;35869;50.990;6.962;2023-04-01T03:07:50;99137.03;;;9.71;100.00
49979;BME280;35869;50.990;6.962;2023-04-01T03:12:50;99134.84;;;9.65;100.00
49979;BME280;35869;50.990;6.962;2023-04-01T03:17:51;99146.81;;;9.80;100.00
49979;BME280;35869;50.990;6.962;2023-04-01T03:22:51;99145.88;;;9.68;100.00
49979;BME280;35869;50.990;6.962;2023-04-01T03:27:51;99143.56;;;9.64;100.00
49979;BME280;35869;50.990;6.962;2023-04-01T03:32:52;99149.38;;;9.67;100.00
49979;BME280;35869;50.990;6.962;2023-04-01T03:37:52;99160.50;;;9.69;100.00
49979;BME280;35869;50.990;6.962;2023-04-01T03:42:53;99159.53;;;9.57;100.00
49979;BME280;35869;50.990;6.962;2023-04-01T03:47:53;99153.72;;;9.54;100.00
49979;BME280;35869;50.990;6.962;2023-04-01T03:52:54;99158.78;;;9.55;100.00
49979;BME280;35869;50.990;6.962;2023-04-01T03:57:54;99155.91;;;9.60;100.00
49979;BME280;35869;50.990;6.962;2023-04-01T04:02:54;99154.00;;;9.49;100.00
49979;BME280;35869;50.990;6.962;2023-04-01T04:07:55;99163.06;;;9.56;100.00
49979;BME280;35869;50.990;6.962;2023-04-01T04:12:55;99164.19;;;9.52;100.00
49979;BME280;35869;50.990;6.962;2023-04-01T04:17:57;99164.50;;;9.60;100.00
49979;BME280;35869;50.990;6.962;2023-04-01T04:22:57;99168.25;;;9.56;100.00
49979;BME280;35869;50.990;6.962;2023-04-01T04:27:57;99163.78;;;9.58;100.00
49979;BME280;35869;50.990;6.962;2023-04-01T04:32:58;99168.16;;;9.58;100.00
49979;BME280;35869;50.990;6.962;2023-04-01T04:37:58;99157.53;;;9.48;100.00
49979;BME280;35869;50.990;6.962;2023-04-01T04:42:58;99160.56;;;9.55;100.00
49979;BME280;35869;50.990;6.962;2023-04-01T04:47:58;99172.69;;;9.54;100.00
49979;BME280;35869;50.990;6.962;2023-04-01T04:52:58;99173.09;;;9.48;100.00
49979;BME280;35869;50.990;6.962;2023-04-01T04:57:59;99173.72;;;9.52;100.00
49979;BME280;35869;50.990;6.962;2023-04-01T05:02:59;99184.22;;;9.50;100.00
49979;BME280;35869;50.990;6.962;2023-04-01T05:07:59;99181.31;;;9.55;100.00
49979;BME280;35869;50.990;6.962;2023-04-01T05:12:59;99187.09;;;9.46;100.00
49979;BME280;35869;50.990;6.962;2023-04-01T05:18:00;99197.03;;;9.39;100.00
49979;BME280;35869;50.990;6.962;2023-04-01T05:23:00;99194.78;;;9.47;100.00
49979;BME280;35869;50.990;6.962;2023-04-01T05:28:01;99199.97;;;9.47;100.00
49979;BME280;35869;50.990;6.962;2023-04-01T05:33:01;99201.00;;;9.45;100.00
49979;BME280;35869;50.990;6.962;2023-04-01T05:38:02;99202.56;;;9.47;100.00
49979;BME280;35869;50.990;6.962;2023-04-01T05:43:02;99208.28;;;9.52;100.00
49979;BME280;35869;50.990;6.962;2023-04-01T05:48:03;99208.94;;;9.56;100.00
49979;BME280;35869;50.990;6.962;2023-04-01T05:53:03;99215.63;;;9.46;100.00
49979;BME280;35869;50.990;6.962;2023-04-01T05:58:04;99215.34;;;9.50;100.00
49979;BME280;35869;50.990;6.962;2023-04-01T06:03:04;99215.13;;;9.53;100.00
49979;BME280;35869;50.990;6.962;2023-04-01T06:08:16;99215.41;;;9.49;100.00
49979;BME280;35869;50.990;6.962;2023-04-01T06:18:53;99236.41;;;9.58;100.00
49979;BME280;35869;50.990;6.962;2023-04-01T06:34:52;99241.72;;;9.57;100.00
49979;BME280;35869;50.990;6.962;2023-04-01T06:50:33;99243.63;;;9.68;100.00
49979;BME280;35869;50.990;6.962;2023-04-01T06:55:52;99249.28;;;9.60;100.00
49979;BME280;35869;50.990;6.962;2023-04-01T07:01:00;99251.44;;;9.53;100.00
49979;BME280;35869;50.990;6.962;2023-04-01T07:06:05;99254.31;;;9.49;100.00
49979;BME280;35869;50.990;6.962;2023-04-01T07:11:09;99261.78;;;9.68;100.00
49979;BME280;35869;50.990;6.962;2023-04-01T07:16:18;99266.59;;;9.59;100.00
49979;BME280;35869;50.990;6.962;2023-04-01T07:21:25;99270.97;;;9.59;100.00
49979;BME280;35869;50.990;6.962;2023-04-01T07:26:27;99276.16;;;9.59;100.00
49979;BME280;35869;50.990;6.962;2023-04-01T07:36:54;99285.25;;;9.52;100.00
49979;BME280;35869;50.990;6.962;2023-04-01T07:42:16;99287.19;;;9.63;100.00
49979;BME280;35869;50.990;6.962;2023-04-01T07:52:52;99305.72;;;9.56;100.00
49979;BME280;35869;50.990;6.962;2023-04-01T08:04:10;99308.56;;;9.66;100.00
49979;BME280;35869;50.990;6.962;2023-04-01T08:08:59;99317.72;;;9.72;100.00
49979;BME280;35869;50.990;6.962;2023-04-01T08:14:14;99325.09;;;9.78;100.00
49979;BME280;35869;50.990;6.962;2023-04-01T08:24:51;99340.09;;;9.87;100.00
49979;BME280;35869;50.990;6.962;2023-04-01T08:30:03;99346.78;;;9.77;100.00
49979;BME280;35869;50.990;6.962;2023-04-01T09:01:26;99373.34;;;9.95;100.00
49979;BME280;35869;50.990;6.962;2023-04-01T09:06:40;99381.13;;;9.95;100.00
49979;BME280;35869;50.990;6.962;2023-04-01T09:17:33;99388.25;;;10.05;100.00
49979;BME280;35869;50.990;6.962;2023-04-01T09:33:10;99415.53;;;9.98;100.00
49979;BME280;35869;50.990;6.962;2023-04-01T09:44:14;99427.00;;;10.08;100.00
49979;BME280;35869;50.990;6.962;2023-04-01T09:49:25;99433.09;;;10.07;100.00
49979;BME280;35869;50.990;6.962;2023-04-01T09:54:51;99436.50;;;10.22;100.00
49979;BME280;35869;50.990;6.962;2023-04-01T10:11:33;99450.81;;;10.29;100.00
49979;BME280;35869;50.990;6.962;2023-04-01T10:17:00;99463.50;;;10.20;100.00
49979;BME280;35869;50.990;6.962;2023-04-01T10:22:25;99463.88;;;10.28;100.00
49979;BME280;35869;50.990;6.962;2023-04-01T10:27:44;99471.78;;;10.12;100.00
49979;BME280;35869;50.990;6.962;2023-04-01T11:37:37;99520.97;;;10.42;100.00
49979;BME280;35869;50.990;6.962;2023-04-01T11:42:47;99515.78;;;10.42;100.00
49979;BME280;35869;50.990;6.962;2023-04-01T11:48:15;99525.22;;;10.57;100.00
49979;BME280;35869;50.990;6.962;2023-04-01T11:53:38;99532.13;;;10.71;100.00
49979;BME280;35869;50.990;6.962;2023-04-01T11:58:56;99536.81;;;10.79;100.00
49979;BME280;35869;50.990;6.962;2023-04-01T12:04:21;99538.53;;;10.80;100.00
49979;BME280;35869;50.990;6.962;2023-04-01T12:19:48;99553.75;;;10.99;100.00
49979;BME280;35869;50.990;6.962;2023-04-01T12:25:00;99559.69;;;11.01;100.00
49979;BME280;35869;50.990;6.962;2023-04-01T12:30:32;99575.56;;;10.96;100.00
49979;BME280;35869;50.990;6.962;2023-04-01T12:35:55;99578.16;;;11.23;100.00
49979;BME280;35869;50.990;6.962;2023-04-01T12:41:25;99581.28;;;11.15;100.00
49979;BME280;35869;50.990;6.962;2023-04-01T12:46:37;99588.94;;;11.04;100.00
49979;BME280;35869;50.990;6.962;2023-04-01T12:52:09;99590.88;;;11.28;100.00
49979;BME280;35869;50.990;6.962;2023-04-01T12:57:45;99593.28;;;11.31;100.00
49979;BME280;35869;50.990;6.962;2023-04-01T13:23:55;99618.66;;;11.27;100.00
49979;BME280;35869;50.990;6.962;2023-04-01T13:34:47;99619.78;;;11.23;100.00
49979;BME280;35869;50.990;6.962;2023-04-01T13:39:58;99623.50;;;11.19;100.00
49979;BME280;35869;50.990;6.962;2023-04-01T13:50:51;99633.47;;;11.39;100.00
49979;BME280;35869;50.990;6.962;2023-04-01T13:56:07;99646.59;;;11.38;100.00
49979;BME280;35869;50.990;6.962;2023-04-01T14:01:17;99648.66;;;11.33;100.00
49979;BME280;35869;50.990;6.962;2023-04-01T14:06:49;99653.84;;;11.33;100.00
49979;BME280;35869;50.990;6.962;2023-04-01T14:12:15;99661.00;;;11.29;100.00
49979;BME280;35869;50.990;6.962;2023-04-01T14:17:40;99669.53;;;11.04;100.00
49979;BME280;35869;50.990;6.962;2023-04-01T14:33:26;99687.19;;;10.99;100.00
49979;BME280;35869;50.990;6.962;2023-04-01T14:38:42;99695.94;;;10.98;100.00
49979;BME280;35869;50.990;6.962;2023-04-01T14:54:31;99702.97;;;10.96;100.00
49979;BME280;35869;50.990;6.962;2023-04-01T14:59:32;99699.84;;;10.91;100.00
49979;BME280;35869;50.990;6.962;2023-04-01T15:04:48;99707.72;;;10.89;100.00
49979;BME280;35869;50.990;6.962;2023-04-01T15:21:16;99721.84;;;10.85;100.00
49979;BME280;35869;50.990;6.962;2023-04-01T15:26:37;99731.94;;;10.90;100.00
49979;BME280;35869;50.990;6.962;2023-04-01T15:31:50;99742.91;;;10.95;100.00
49979;BME280;35869;50.990;6.962;2023-04-01T15:37:20;99749.13;;;10.78;100.00
49979;BME280;35869;50.990;6.962;2023-04-01T15:47:44;99761.00;;;10.82;100.00
49979;BME280;35869;50.990;6.962;2023-04-01T16:14:13;99790.06;;;10.89;100.00
49979;BME280;35869;50.990;6.962;2023-04-01T16:19:37;99794.91;;;10.95;100.00
49979;BME280;35869;50.990;6.962;2023-04-01T16:24:52;99804.63;;;10.77;100.00
49979;BME280;35869;50.990;6.962;2023-04-01T16:30:25;99804.19;;;10.85;100.00
49979;BME280;35869;50.990;6.962;2023-04-01T16:35:58;99809.94;;;10.76;100.00
49979;BME280;35869;50.990;6.962;2023-04-01T16:51:15;99832.75;;;10.71;100.00
49979;BME280;35869;50.990;6.962;2023-04-01T16:56:30;99846.59;;;10.71;100.00
49979;BME280;35869;50.990;6.962;2023-04-01T17:01:52;99846.22;;;10.63;100.00
49979;BME280;35869;50.990;6.962;2023-04-01T17:06:59;99850.75;;;10.59;100.00
49979;BME280;35869;50.990;6.962;2023-04-01T17:12:16;99858.38;;;10.62;100.00
49979;BME280;35869;50.990;6.962;2023-04-01T17:22:52;99877.06;;;10.53;100.00
49979;BME280;35869;50.990;6.962;2023-04-01T17:28:19;99880.22;;;10.44;100.00
49979;BME280;35869;50.990;6.962;2023-04-01T17:39:08;99899.00;;;10.33;100.00
49979;BME280;35869;50.990;6.962;2023-04-01T17:44:56;99904.78;;;10.38;100.00
49979;BME280;35869;50.990;6.962;2023-04-01T17:50:19;99910.31;;;10.32;100.00
49979;BME280;35869;50.990;6.962;2023-04-01T18:00:36;99932.44;;;10.24;100.00
49979;BME280;35869;50.990;6.962;2023-04-01T18:11:13;99943.66;;;10.08;100.00
49979;BME280;35869;50.990;6.962;2023-04-01T18:21:49;99961.88;;;10.07;100.00
49979;BME280;35869;50.990;6.962;2023-04-01T18:27:01;99972.28;;;10.07;100.00
49979;BME280;35869;50.990;6.962;2023-04-01T18:32:29;99979.56;;;10.00;100.00
49979;BME280;35869;50.990;6.962;2023-04-01T18:37:38;99986.34;;;10.03;100.00
49979;BME280;35869;50.990;6.962;2023-04-01T18:43:02;99996.47;;;9.92;100.00
49979;BME280;35869;50.990;6.962;2023-04-01T18:58:29;100009.50;;;9.90;100.00
49979;BME280;35869;50.990;6.962;2023-04-01T19:08:52;100026.34;;;9.83;100.00
49979;BME280;35869;50.990;6.962;2023-04-01T19:19:46;100041.25;;;9.79;100.00
49979;BME280;35869;50.990;6.962;2023-04-01T19:30:11;100053.53;;;9.76;100.00
49979;BME280;35869;50.990;6.962;2023-04-01T19:45:36;100062.31;;;9.73;100.00
49979;BME280;35869;50.990;6.962;2023-04-01T19:51:03;100066.13;;;9.66;100.00
49979;BME280;35869;50.990;6.962;2023-04-01T20:01:32;100074.81;;;9.65;100.00
49979;BME280;35869;50.990;6.962;2023-04-01T20:07:00;100083.22;;;9.70;100.00
49979;BME280;35869;50.990;6.962;2023-04-01T20:12:15;100094.75;;;9.65;100.00
49979;BME280;35869;50.990;6.962;2023-04-01T20:17:38;100103.59;;;9.60;100.00
49979;BME280;35869;50.990;6.962;2023-04-01T20:27:48;100119.31;;;9.57;100.00
49979;BME280;35869;50.990;6.962;2023-04-01T20:43:52;100131.75;;;9.51;100.00
49979;BME280;35869;50.990;6.962;2023-04-01T20:49:01;100138.72;;;9.50;100.00
49979;BME280;35869;50.990;6.962;2023-04-01T20:59:38;100143.91;;;9.50;100.00
49979;BME280;35869;50.990;6.962;2023-04-01T21:05:09;100148.31;;;9.48;100.00
49979;BME280;35869;50.990;6.962;2023-04-01T21:37:02;100170.19;;;9.43;100.00
49979;BME280;35869;50.990;6.962;2023-04-01T21:42:19;100175.38;;;9.43;100.00
49979;BME280;35869;50.990;6.962;2023-04-01T21:58:41;100191.09;;;9.40;100.00
49979;BME280;35869;50.990;6.962;2023-04-01T22:09:56;100204.00;;;9.41;100.00
49979;BME280;35869;50.990;6.962;2023-04-01T22:15:16;100198.19;;;9.36;100.00
49979;BME280;35869;50.990;6.962;2023-04-01T22:20:45;100209.59;;;9.32;100.00
49979;BME280;35869;50.990;6.962;2023-04-01T22:26:16;100219.84;;;9.35;100.00
49979;BME280;35869;50.990;6.962;2023-04-01T22:31:25;100225.03;;;9.35;100.00
49979;BME280;35869;50.990;6.962;2023-04-01T22:42:06;100231.06;;;9.35;100.00
49979;BME280;35869;50.990;6.962;2023-04-01T22:47:19;100234.66;;;9.33;100.00
49979;BME280;35869;50.990;6.962;2023-04-01T22:52:36;100243.31;;;9.32;100.00
49979;BME280;35869;50.990;6.962;2023-04-01T22:57:47;100253.56;;;9.35;100.00
49979;BME280;35869;50.990;6.962;2023-04-01T23:03:22;100260.59;;;9.33;100.00
49979;BME280;35869;50.990;6.962;2023-04-01T23:13:53;100276.97;;;9.33;100.00
49979;BME280;35869;50.990;6.962;2023-04-01T23:19:06;100280.50;;;9.32;100.00
49979;BME280;35869;50.990;6.962;2023-04-01T23:24:30;100284.75;;;9.33;100.00
49979;BME280;35869;50.990;6.962;2023-04-01T23:29:37;100299.41;;;9.34;100.00
49979;BME280;35869;50.990;6.962;2023-04-01T23:34:37;100311.47;;;9.35;100.00
49979;BME280;35869;50.990;6.962;2023-04-01T23:39:43;100321.00;;;9.35;100.00
49979;BME280;35869;50.990;6.962;2023-04-01T23:44:43;100330.44;;;9.36;100.00
49979;BME280;35869;50.990;6.962;2023-04-01T23:49:47;100344.25;;;9.37;100.00
49979;BME280;35869;50.990;6.962;2023-04-01T23:54:52;100354.34;;;9.43;100.00
